createdAt,value
2023-02-17T00:00:21.672Z,99194.03
2023-02-17T00:02:48.191Z,99198.59
2023-02-17T00:05:14.793Z,99196.41
2023-02-17T00:07:41.556Z,99199.47
2023-02-17T00:10:09.138Z,99195.16
2023-02-17T00:12:36.430Z,99187.59
2023-02-17T00:15:03.846Z,99190.16
2023-02-17T00:17:30.352Z,99183.78
2023-02-17T00:22:34.644Z,99181.97
2023-02-17T00:25:01.165Z,99186.09
2023-02-17T00:27:27.676Z,99180.63
2023-02-17T00:29:54.223Z,99178.44
2023-02-17T00:32:21.036Z,99177.75
2023-02-17T00:34:47.537Z,99170.59
2023-02-17T00:39:45.312Z,99171.28
2023-02-17T00:42:11.845Z,99172.00
2023-02-17T00:44:38.374Z,99172.88
2023-02-17T00:47:04.914Z,99174.34
2023-02-17T00:49:31.481Z,99176.53
2023-02-17T00:52:01.993Z,99177.00
2023-02-17T00:54:29.030Z,99174.94
2023-02-17T00:56:55.886Z,99181.09
2023-02-17T00:59:22.448Z,99179.50
2023-02-17T01:01:48.987Z,99183.38
2023-02-17T01:04:15.646Z,99174.84
2023-02-17T01:06:42.227Z,99178.84
2023-02-17T01:09:13.158Z,99176.34
2023-02-17T01:11:40.568Z,99177.47
2023-02-17T01:14:07.527Z,99181.09
2023-02-17T01:16:37.933Z,99169.97
2023-02-17T01:19:07.735Z,99173.81
2023-02-17T01:21:35.507Z,99164.28
2023-02-17T01:24:05.390Z,99167.25
2023-02-17T01:26:34.008Z,99164.59
2023-02-17T01:29:00.552Z,99163.81
2023-02-17T01:31:28.023Z,99158.25
2023-02-17T01:33:57.268Z,99154.38
2023-02-17T01:36:24.328Z,99162.22
2023-02-17T01:38:50.902Z,99159.97
2023-02-17T01:41:19.004Z,99146.56
2023-02-17T01:44:08.417Z,99158.34
2023-02-17T01:46:36.090Z,99149.28
2023-02-17T01:49:14.234Z,99150.53
2023-02-17T01:51:41.178Z,99142.22
2023-02-17T01:54:19.720Z,99144.94
2023-02-17T01:56:48.769Z,99141.09
2023-02-17T01:59:21.219Z,99131.75
2023-02-17T02:01:52.443Z,99127.19
2023-02-17T02:04:22.646Z,99126.66
2023-02-17T02:06:49.232Z,99126.19
2023-02-17T02:11:54.155Z,99129.81
2023-02-17T02:14:22.664Z,99129.81
2023-02-17T02:17:04.898Z,99124.25
2023-02-17T02:19:59.561Z,99117.41
2023-02-17T02:22:52.675Z,99123.22
2023-02-17T02:25:32.517Z,99123.66
2023-02-17T02:28:22.917Z,99121.53
2023-02-17T02:31:20.568Z,99119.13
2023-02-17T02:33:54.324Z,99118.09
2023-02-17T02:36:31.004Z,99116.41
2023-02-17T02:39:10.316Z,99114.25
2023-02-17T02:41:42.500Z,99107.41
2023-02-17T02:44:13.069Z,99107.28
2023-02-17T02:46:39.612Z,99107.28
2023-02-17T02:49:07.332Z,99106.06
2023-02-17T02:51:46.920Z,99105.59
2023-02-17T02:54:27.013Z,99101.03
2023-02-17T02:57:04.479Z,99101.72
2023-02-17T02:59:36.675Z,99096.00
2023-02-17T03:02:03.142Z,99102.38
2023-02-17T03:04:41.521Z,99097.59
2023-02-17T03:07:22.349Z,99092.03
2023-02-17T03:09:54.201Z,99084.75
2023-02-17T03:15:22.598Z,99091.34
2023-02-17T03:17:49.109Z,99086.25
2023-02-17T03:20:15.844Z,99080.53
2023-02-17T03:22:46.786Z,99074.97
2023-02-17T03:25:13.818Z,99074.34
2023-02-17T03:27:40.340Z,99074.56
2023-02-17T03:30:08.531Z,99075.44
2023-02-17T03:32:35.668Z,99077.59
2023-02-17T03:35:02.303Z,99083.31
2023-02-17T03:37:28.852Z,99082.84
2023-02-17T03:39:55.331Z,99079.88
2023-02-17T03:42:22.074Z,99079.31
2023-02-17T03:44:48.549Z,99080.34
2023-02-17T03:47:15.075Z,99095.13
2023-02-17T03:52:15.014Z,99090.66
2023-02-17T03:54:41.585Z,99085.06
2023-02-17T03:57:08.150Z,99084.16
2023-02-17T03:59:34.923Z,99089.97
2023-02-17T04:02:01.669Z,99088.13
2023-02-17T04:04:28.250Z,99084.75
2023-02-17T04:06:54.782Z,99086.66
2023-02-17T04:09:21.417Z,99089.84
2023-02-17T04:11:48.005Z,99089.84
2023-02-17T04:14:14.497Z,99084.84
2023-02-17T04:16:41.116Z,99091.88
2023-02-17T04:19:07.804Z,99087.59
2023-02-17T04:21:34.617Z,99090.75
2023-02-17T04:24:02.198Z,99098.50
2023-02-17T04:26:29.586Z,99099.53
2023-02-17T04:28:56.453Z,99105.78
2023-02-17T04:31:23.577Z,99096.94
2023-02-17T04:33:50.156Z,99102.38
2023-02-17T04:36:16.624Z,99094.19
2023-02-17T04:41:21.038Z,99092.34
2023-02-17T04:46:18.799Z,99084.63
2023-02-17T04:48:45.312Z,99082.38
2023-02-17T04:51:11.838Z,99075.22
2023-02-17T04:53:38.540Z,99079.63
2023-02-17T04:56:05.721Z,99079.63
2023-02-17T04:58:33.161Z,99078.06
2023-02-17T05:01:01.097Z,99069.50
2023-02-17T05:03:27.720Z,99081.66
2023-02-17T05:05:54.321Z,99083.06
2023-02-17T05:08:20.873Z,99085.09
2023-02-17T05:10:47.414Z,99073.47
2023-02-17T05:15:46.323Z,99083.75
2023-02-17T05:18:13.489Z,99074.34
2023-02-17T05:20:40.694Z,99073.97
2023-02-17T05:25:45.775Z,99080.25
2023-02-17T05:28:12.399Z,99077.59
2023-02-17T05:30:38.973Z,99077.16
2023-02-17T05:35:38.405Z,99082.53
2023-02-17T05:38:04.972Z,99083.22
2023-02-17T05:40:31.826Z,99085.00
2023-02-17T05:42:58.458Z,99087.75
2023-02-17T05:45:25.030Z,99090.94
2023-02-17T05:47:51.563Z,99095.13
2023-02-17T05:50:18.141Z,99094.69
2023-02-17T05:52:44.779Z,99095.59
2023-02-17T05:55:11.278Z,99096.72
2023-02-17T05:57:37.836Z,99094.50
2023-02-17T06:00:04.888Z,99104.13
2023-02-17T06:02:31.426Z,99099.94
2023-02-17T06:04:58.097Z,99107.88
2023-02-17T06:07:24.728Z,99105.13
2023-02-17T06:09:51.278Z,99106.19
2023-02-17T06:12:17.790Z,99109.03
2023-02-17T06:14:44.355Z,99108.44
2023-02-17T06:17:11.167Z,99115.03
2023-02-17T06:19:37.699Z,99118.13
2023-02-17T06:22:04.245Z,99124.50
2023-02-17T06:24:30.948Z,99132.00
2023-02-17T06:26:57.498Z,99123.72
2023-02-17T06:29:24.143Z,99128.34
2023-02-17T06:31:50.814Z,99128.34
2023-02-17T06:34:17.708Z,99117.56
2023-02-17T06:36:44.469Z,99126.28
2023-02-17T06:39:11.201Z,99128.31
2023-02-17T06:41:37.780Z,99130.63
2023-02-17T06:44:04.512Z,99127.06
2023-02-17T06:46:31.352Z,99123.31
2023-02-17T06:48:57.962Z,99121.63
2023-02-17T06:51:24.483Z,99122.06
2023-02-17T06:53:51.090Z,99134.34
2023-02-17T06:56:18.842Z,99125.81
2023-02-17T06:58:47.241Z,99129.41
2023-02-17T07:01:23.593Z,99133.75
2023-02-17T07:03:50.396Z,99128.28
2023-02-17T07:06:16.969Z,99137.72
2023-02-17T07:08:43.512Z,99145.56
2023-02-17T07:11:13.967Z,99139.41
2023-02-17T07:13:41.204Z,99143.38
2023-02-17T07:16:09.492Z,99142.94
2023-02-17T07:18:37.940Z,99142.94
2023-02-17T07:21:09.189Z,99154.28
2023-02-17T07:23:36.303Z,99149.19
2023-02-17T07:26:09.275Z,99153.63
2023-02-17T07:28:36.771Z,99153.25
2023-02-17T07:31:11.144Z,99156.25
2023-02-17T07:33:38.472Z,99161.81
2023-02-17T07:36:09.774Z,99157.59
2023-02-17T07:38:36.853Z,99161.38
2023-02-17T07:41:08.005Z,99156.66
2023-02-17T07:43:34.746Z,99158.03
2023-02-17T07:46:01.392Z,99146.69
2023-02-17T07:48:28.096Z,99159.19
2023-02-17T07:50:54.880Z,99162.38
2023-02-17T07:55:52.631Z,99162.25
2023-02-17T07:58:19.145Z,99165.88
2023-02-17T08:00:45.654Z,99162.78
2023-02-17T08:03:12.164Z,99159.97
2023-02-17T08:05:41.047Z,99167.00
2023-02-17T08:08:27.178Z,99162.69
2023-02-17T08:11:12.109Z,99164.72
2023-02-17T08:13:38.725Z,99161.91
2023-02-17T08:16:05.904Z,99169.94
2023-02-17T08:18:36.550Z,99161.06
2023-02-17T08:21:04.358Z,99168.22
2023-02-17T08:23:31.112Z,99165.50
2023-02-17T08:25:59.393Z,99168.22
2023-02-17T08:28:25.927Z,99167.72
2023-02-17T08:30:52.630Z,99176.16
2023-02-17T08:33:19.323Z,99164.69
2023-02-17T08:35:46.090Z,99172.28
2023-02-17T08:38:12.930Z,99170.44
2023-02-17T08:40:39.864Z,99167.72
2023-02-17T08:43:18.739Z,99163.13
2023-02-17T08:45:45.875Z,99167.91
2023-02-17T08:48:12.477Z,99175.66
2023-02-17T08:50:39.017Z,99174.97
2023-02-17T08:53:05.670Z,99165.44
2023-02-17T08:55:47.304Z,99164.38
2023-02-17T08:58:15.332Z,99169.13
2023-02-17T09:00:41.949Z,99164.25
2023-02-17T09:03:08.518Z,99175.59
2023-02-17T09:05:36.318Z,99167.13
2023-02-17T09:08:02.850Z,99169.41
2023-02-17T09:10:29.475Z,99163.28
2023-02-17T09:15:27.319Z,99176.84
2023-02-17T09:17:53.835Z,99174.88
2023-02-17T09:20:25.082Z,99181.50
2023-02-17T09:22:52.503Z,99185.75
2023-02-17T09:30:23.072Z,99194.84
2023-02-17T09:32:49.648Z,99191.41
2023-02-17T09:37:50.268Z,99191.94
2023-02-17T09:40:32.847Z,99185.69
2023-02-17T09:42:59.462Z,99193.53
2023-02-17T09:45:32.607Z,99192.03
2023-02-17T09:48:07.509Z,99200.44
2023-02-17T09:50:51.106Z,99198.47
2023-02-17T09:53:29.159Z,99196.97
2023-02-17T09:55:59.129Z,99200.25
2023-02-17T09:58:40.711Z,99212.09
2023-02-17T10:01:12.394Z,99201.16
2023-02-17T10:03:44.562Z,99205.81
2023-02-17T10:06:24.500Z,99203.63
2023-02-17T10:09:01.695Z,99215.53
2023-02-17T10:11:45.819Z,99200.97
2023-02-17T10:14:26.664Z,99204.59
2023-02-17T10:17:08.208Z,99206.59
2023-02-17T10:22:19.603Z,99196.41
2023-02-17T10:24:46.239Z,99191.63
2023-02-17T10:27:19.187Z,99183.72
2023-02-17T10:30:09.098Z,99183.16
2023-02-17T10:32:51.052Z,99180.31
2023-02-17T10:35:27.465Z,99176.41
2023-02-17T10:38:12.620Z,99180.31
2023-02-17T10:40:39.473Z,99172.75
2023-02-17T10:43:10.224Z,99171.47
2023-02-17T10:45:49.547Z,99164.00
2023-02-17T10:50:53.915Z,99170.63
2023-02-17T10:53:28.503Z,99172.06
2023-02-17T10:56:07.467Z,99168.31
2023-02-17T10:58:36.858Z,99155.94
2023-02-17T11:01:05.526Z,99161.00
2023-02-17T11:03:34.048Z,99163.31
2023-02-17T11:06:06.602Z,99159.13
2023-02-17T11:08:54.144Z,99151.56
2023-02-17T11:11:26.607Z,99146.78
2023-02-17T11:14:08.329Z,99147.22
2023-02-17T11:16:38.983Z,99148.19
2023-02-17T11:19:18.073Z,99131.69
2023-02-17T11:21:44.672Z,99131.66
2023-02-17T11:24:11.654Z,99136.81
2023-02-17T11:26:38.322Z,99128.81
2023-02-17T11:29:17.742Z,99129.19
2023-02-17T11:31:56.702Z,99131.78
2023-02-17T11:34:28.481Z,99125.38
2023-02-17T11:37:08.487Z,99122.72
2023-02-17T11:39:44.667Z,99123.41
2023-02-17T11:42:26.581Z,99126.50
2023-02-17T11:44:57.429Z,99125.25
2023-02-17T11:47:53.042Z,99133.28
2023-02-17T11:50:42.257Z,99113.66
2023-02-17T11:53:20.134Z,99134.38
2023-02-17T11:55:53.950Z,99133.16
2023-02-17T11:58:50.009Z,99140.22
2023-02-17T12:01:35.798Z,99132.84
2023-02-17T12:04:31.249Z,99136.25
2023-02-17T12:07:00.907Z,99135.47
2023-02-17T12:09:45.809Z,99142.53
2023-02-17T12:12:44.621Z,99137.84
2023-02-17T12:15:43.001Z,99135.47
2023-02-17T12:18:24.882Z,99137.47
2023-02-17T12:21:03.087Z,99141.44
2023-02-17T12:24:00.608Z,99138.63
2023-02-17T12:26:45.346Z,99138.63
2023-02-17T12:29:42.851Z,99140.22
2023-02-17T12:32:30.367Z,99141.72
2023-02-17T12:35:13.061Z,99134.09
2023-02-17T12:37:50.676Z,99140.34
2023-02-17T12:40:32.923Z,99128.94
2023-02-17T12:43:14.514Z,99128.22
2023-02-17T12:45:44.270Z,99124.78
2023-02-17T12:48:21.199Z,99126.06
2023-02-17T12:51:05.202Z,99122.13
2023-02-17T12:53:44.505Z,99116.22
2023-02-17T12:56:26.702Z,99113.31
2023-02-17T12:58:56.566Z,99119.16
2023-02-17T13:01:29.296Z,99113.31
2023-02-17T13:06:41.387Z,99099.88
2023-02-17T13:09:26.376Z,99106.19
2023-02-17T13:11:53.051Z,99111.91
2023-02-17T13:14:28.751Z,99109.97
2023-02-17T13:16:56.660Z,99116.56
2023-02-17T13:19:31.318Z,99111.00
2023-02-17T13:22:02.481Z,99112.06
2023-02-17T13:30:21.794Z,99108.97
2023-02-17T13:33:04.008Z,99103.91
2023-02-17T13:35:34.291Z,99099.63
2023-02-17T13:38:03.395Z,99104.00
2023-02-17T13:40:30.156Z,99105.16
2023-02-17T13:42:58.219Z,99104.09
2023-02-17T13:45:29.271Z,99094.16
2023-02-17T13:47:58.473Z,99098.13
2023-02-17T13:50:30.722Z,99094.50
2023-02-17T13:52:57.789Z,99099.25
2023-02-17T13:55:25.082Z,99094.16
2023-02-17T13:57:56.229Z,99087.06
2023-02-17T14:00:31.186Z,99087.53
2023-02-17T14:02:59.431Z,99079.25
2023-02-17T14:05:34.962Z,99078.53
2023-02-17T14:08:07.985Z,99074.22
2023-02-17T14:10:36.143Z,99079.31
2023-02-17T14:13:02.915Z,99073.50
2023-02-17T14:15:30.050Z,99073.19
2023-02-17T14:17:56.945Z,99069.28
2023-02-17T14:20:35.384Z,99070.25
2023-02-17T14:23:14.646Z,99067.06
2023-02-17T14:25:47.133Z,99066.28
2023-02-17T14:28:23.408Z,99068.81
2023-02-17T14:30:51.217Z,99072.97
2023-02-17T14:33:17.988Z,99080.22
2023-02-17T14:35:57.215Z,99075.59
2023-02-17T14:41:05.397Z,99064.13
2023-02-17T14:43:32.350Z,99061.31
2023-02-17T14:45:58.930Z,99065.94
2023-02-17T14:48:27.720Z,99067.66
2023-02-17T14:50:56.892Z,99071.88
2023-02-17T14:53:26.021Z,99065.44
2023-02-17T14:56:26.219Z,99073.16
2023-02-17T14:58:53.914Z,99075.16
2023-02-17T15:01:22.018Z,99068.59
2023-02-17T15:03:49.109Z,99072.53
2023-02-17T15:06:18.881Z,99066.97
2023-02-17T15:11:31.912Z,99057.59
2023-02-17T15:13:58.412Z,99059.13
2023-02-17T15:16:24.923Z,99064.53
2023-02-17T15:18:51.741Z,99058.91
2023-02-17T15:21:33.684Z,99060.47
2023-02-17T15:26:32.890Z,99060.84
2023-02-17T15:29:00.058Z,99054.63
2023-02-17T15:31:31.603Z,99057.34
2023-02-17T15:34:00.348Z,99056.56
2023-02-17T15:36:28.448Z,99056.91
2023-02-17T15:38:55.003Z,99062.09
2023-02-17T15:44:00.910Z,99060.38
2023-02-17T15:46:31.671Z,99056.84
2023-02-17T15:48:58.328Z,99073.16
2023-02-17T15:51:24.963Z,99059.31
2023-02-17T15:53:51.957Z,99059.22
2023-02-17T15:56:29.993Z,99058.22
2023-02-17T15:58:58.435Z,99062.91
2023-02-17T16:04:04.814Z,99055.34
2023-02-17T16:06:31.328Z,99057.28
2023-02-17T16:09:00.614Z,99069.78
2023-02-17T16:11:28.223Z,99075.91
2023-02-17T16:13:54.990Z,99062.00
2023-02-17T16:16:32.749Z,99074.13
2023-02-17T16:19:00.667Z,99072.19
2023-02-17T16:21:27.404Z,99077.91
2023-02-17T16:23:59.053Z,99066.88
2023-02-17T16:26:30.241Z,99068.56
2023-02-17T16:28:56.799Z,99078.72
2023-02-17T16:31:24.115Z,99084.94
2023-02-17T16:33:51.723Z,99084.19
2023-02-17T16:36:21.219Z,99090.03
2023-02-17T16:38:51.060Z,99076.69
2023-02-17T16:41:20.184Z,99089.69
2023-02-17T16:43:46.825Z,99093.94
2023-02-17T16:46:33.757Z,99087.38
2023-02-17T16:49:02.084Z,99097.41
2023-02-17T16:51:29.187Z,99106.72
2023-02-17T16:53:56.397Z,99108.69
2023-02-17T16:56:29.664Z,99107.75
2023-02-17T16:58:56.192Z,99111.28
2023-02-17T17:01:24.281Z,99105.38
2023-02-17T17:03:51.003Z,99114.41
2023-02-17T17:06:22.455Z,99106.97
2023-02-17T17:08:49.356Z,99112.06
2023-02-17T17:11:18.842Z,99103.44
2023-02-17T17:13:47.615Z,99106.53
2023-02-17T17:18:50.620Z,99107.31
2023-02-17T17:21:18.738Z,99106.38
2023-02-17T17:23:46.517Z,99104.41
2023-02-17T17:26:26.685Z,99111.47
2023-02-17T17:28:54.776Z,99115.31
2023-02-17T17:31:22.203Z,99114.50
2023-02-17T17:33:50.528Z,99109.03
2023-02-17T17:36:36.263Z,99093.75
2023-02-17T17:39:05.810Z,99092.59
2023-02-17T17:41:32.797Z,99101.69
2023-02-17T17:44:00.007Z,99096.53
2023-02-17T17:46:34.345Z,99110.63
2023-02-17T17:49:01.794Z,99121.91
2023-02-17T17:51:30.019Z,99119.16
2023-02-17T17:53:57.118Z,99118.78
2023-02-17T17:56:29.669Z,99116.72
2023-02-17T17:59:00.445Z,99101.44
2023-02-17T18:01:27.566Z,99110.06
2023-02-17T18:03:54.873Z,99113.47
2023-02-17T18:06:42.520Z,99108.84
2023-02-17T18:09:25.669Z,99121.69
2023-02-17T18:11:59.247Z,99133.09
2023-02-17T18:14:25.880Z,99133.00
2023-02-17T18:16:52.406Z,99134.59
2023-02-17T18:19:20.075Z,99134.66
2023-02-17T18:21:47.806Z,99142.53
2023-02-17T18:24:14.445Z,99138.63
2023-02-17T18:26:40.975Z,99155.09
2023-02-17T18:29:07.645Z,99165.25
2023-02-17T18:34:05.401Z,99159.38
2023-02-17T18:36:32.037Z,99161.81
2023-02-17T18:38:58.603Z,99162.44
2023-02-17T18:41:28.326Z,99167.91
2023-02-17T18:46:28.520Z,99182.25
2023-02-17T18:48:56.009Z,99184.94
2023-02-17T18:51:24.046Z,99182.63
2023-02-17T18:53:51.018Z,99190.72
2023-02-17T18:56:20.892Z,99189.78
2023-02-17T18:58:49.702Z,99192.91
2023-02-17T19:01:17.927Z,99195.31
2023-02-17T19:06:21.538Z,99215.22
2023-02-17T19:08:48.825Z,99208.00
2023-02-17T19:11:18.172Z,99225.19
2023-02-17T19:13:44.718Z,99227.47
2023-02-17T19:16:13.855Z,99231.44
2023-02-17T19:18:42.099Z,99234.19
2023-02-17T19:21:09.692Z,99241.47
2023-02-17T19:23:36.924Z,99237.81
2023-02-17T19:26:07.934Z,99232.72
2023-02-17T19:28:36.495Z,99238.31
2023-02-17T19:31:06.357Z,99251.50
2023-02-17T19:33:33.035Z,99242.06
2023-02-17T19:35:59.561Z,99253.69
2023-02-17T19:40:57.582Z,99264.41
2023-02-17T19:43:24.158Z,99267.44
2023-02-17T19:45:50.823Z,99270.00
2023-02-17T19:48:17.470Z,99262.50
2023-02-17T19:50:44.099Z,99274.44
2023-02-17T19:55:49.345Z,99301.31
2023-02-17T19:58:15.879Z,99280.38
2023-02-17T20:00:42.570Z,99275.94
2023-02-17T20:03:09.167Z,99281.44
2023-02-17T20:05:42.590Z,99274.34
2023-02-17T20:13:12.053Z,99264.56
2023-02-17T20:15:38.718Z,99271.59
2023-02-17T20:18:05.306Z,99282.03
2023-02-17T20:20:31.809Z,99268.78
2023-02-17T20:22:58.404Z,99274.25
2023-02-17T20:25:24.923Z,99271.97
2023-02-17T20:27:52.835Z,99279.41
2023-02-17T20:30:19.781Z,99280.09
2023-02-17T20:32:46.307Z,99286.97
2023-02-17T20:35:14.198Z,99281.50
2023-02-17T20:37:40.715Z,99281.06
2023-02-17T20:40:07.777Z,99280.78
2023-02-17T20:42:34.347Z,99272.50
2023-02-17T20:45:00.882Z,99262.34
2023-02-17T20:47:27.470Z,99267.22
2023-02-17T20:49:54.095Z,99259.00
2023-02-17T20:54:53.660Z,99260.50
2023-02-17T20:57:20.237Z,99262.44
2023-02-17T20:59:47.141Z,99267.72
2023-02-17T21:02:13.746Z,99268.59
2023-02-17T21:04:40.298Z,99263.84
2023-02-17T21:07:06.799Z,99258.81
2023-02-17T21:09:33.339Z,99269.84
2023-02-17T21:11:59.840Z,99263.13
2023-02-17T21:14:26.388Z,99259.53
2023-02-17T21:16:53.140Z,99253.78
2023-02-17T21:19:19.797Z,99262.41
2023-02-17T21:21:46.616Z,99253.13
2023-02-17T21:24:13.420Z,99257.81
2023-02-17T21:26:41.956Z,99258.69
2023-02-17T21:29:08.455Z,99262.06
2023-02-17T21:31:37.085Z,99261.28
2023-02-17T21:34:04.139Z,99261.00
2023-02-17T21:36:30.699Z,99261.00
2023-02-17T21:38:57.831Z,99267.34
2023-02-17T21:41:26.644Z,99275.13
2023-02-17T21:44:12.716Z,99276.72
2023-02-17T21:46:41.885Z,99268.06
2023-02-17T21:49:08.556Z,99272.81
2023-02-17T21:51:37.866Z,99265.78
2023-02-17T21:54:05.893Z,99267.34
2023-02-17T21:56:32.718Z,99248.19
2023-02-17T21:58:59.325Z,99259.13
2023-02-17T22:01:27.772Z,99264.16
2023-02-17T22:03:55.281Z,99257.47
2023-02-17T22:06:28.612Z,99260.22
2023-02-17T22:08:56.448Z,99254.81
2023-02-17T22:11:29.531Z,99252.94
2023-02-17T22:13:58.011Z,99258.78
2023-02-17T22:16:25.418Z,99257.28
2023-02-17T22:18:52.464Z,99260.47
2023-02-17T22:21:19.016Z,99262.03
2023-02-17T22:23:45.967Z,99261.59
2023-02-17T22:26:18.909Z,99259.31
2023-02-17T22:31:23.126Z,99268.97
2023-02-17T22:33:49.949Z,99263.47
2023-02-17T22:36:19.571Z,99264.97
2023-02-17T22:38:46.104Z,99263.09
2023-02-17T22:41:16.006Z,99269.88
2023-02-17T22:43:43.560Z,99270.59
2023-02-17T22:46:11.104Z,99277.25
2023-02-17T22:48:38.945Z,99269.81
2023-02-17T22:51:07.012Z,99273.44
2023-02-17T22:53:34.683Z,99265.66
2023-02-17T22:58:33.114Z,99260.38
2023-02-17T23:01:03.391Z,99265.66
2023-02-17T23:03:29.958Z,99261.06
2023-02-17T23:06:07.939Z,99260.59
2023-02-17T23:08:34.814Z,99259.75
2023-02-17T23:11:05.645Z,99258.84
2023-02-17T23:13:33.364Z,99261.78
2023-02-17T23:15:59.912Z,99249.81
2023-02-17T23:18:28.733Z,99252.13
2023-02-17T23:20:55.290Z,99247.34
2023-02-17T23:23:22.269Z,99243.03
2023-02-17T23:25:54.979Z,99246.47
2023-02-17T23:30:55.434Z,99240.13
2023-02-17T23:33:23.479Z,99242.88
2023-02-17T23:35:50.080Z,99245.78
2023-02-17T23:38:21.527Z,99246.34
2023-02-17T23:40:51.916Z,99242.88
2023-02-17T23:43:19.434Z,99244.09
2023-02-17T23:45:46.171Z,99244.38
2023-02-17T23:48:13.352Z,99247.19
2023-02-17T23:50:39.968Z,99246.47
2023-02-17T23:53:06.748Z,99251.16
2023-02-17T23:55:33.701Z,99245.69
2023-02-17T23:58:00.796Z,99244.09
